createdAt,value
2017-01-18T00:01:01.518Z,0
2017-01-18T00:02:23.183Z,0
2017-01-18T00:03:46.161Z,0
2017-01-18T00:05:09.123Z,0
2017-01-18T00:06:31.992Z,0
2017-01-18T00:07:54.771Z,0
2017-01-18T00:09:17.271Z,0
2017-01-18T00:10:39.880Z,0
2017-01-18T00:12:02.536Z,0
2017-01-18T00:13:25.013Z,0
2017-01-18T00:14:47.603Z,0
2017-01-18T00:16:09.733Z,0
2017-01-18T00:17:32.762Z,0
2017-01-18T00:18:54.836Z,0
2017-01-18T00:20:17.708Z,0
2017-01-18T00:21:39.799Z,0
2017-01-18T00:23:02.749Z,0
2017-01-18T00:24:25.625Z,0
2017-01-18T00:25:48.653Z,0
2017-01-18T00:27:11.130Z,0
2017-01-18T00:28:34.123Z,0
2017-01-18T00:29:56.983Z,0
2017-01-18T00:31:19.498Z,0
2017-01-18T00:32:41.972Z,0
2017-01-18T00:34:04.048Z,0
2017-01-18T00:35:26.137Z,0
2017-01-18T00:36:49.228Z,0
2017-01-18T00:38:11.786Z,0
2017-01-18T00:39:34.904Z,0
2017-01-18T00:40:57.844Z,0
2017-01-18T00:42:20.294Z,0
2017-01-18T00:43:43.222Z,0
2017-01-18T00:45:06.093Z,0
2017-01-18T00:46:29.162Z,0
2017-01-18T00:47:52.142Z,0
2017-01-18T00:49:14.333Z,0
2017-01-18T00:50:37.191Z,0
2017-01-18T00:51:59.652Z,0
2017-01-18T00:53:22.504Z,0
2017-01-18T00:54:45.371Z,0
2017-01-18T00:56:08.250Z,0
2017-01-18T00:57:30.786Z,0
2017-01-18T00:58:53.714Z,0
2017-01-18T01:00:16.603Z,0
2017-01-18T01:01:39.565Z,0
2017-01-18T01:03:02.033Z,0
2017-01-18T01:04:24.528Z,0
2017-01-18T01:05:47.540Z,0
2017-01-18T01:07:09.322Z,0
2017-01-18T01:08:31.791Z,0
2017-01-18T01:09:54.244Z,0
2017-01-18T01:11:16.804Z,0
2017-01-18T01:12:39.332Z,0
2017-01-18T01:14:02.187Z,0
2017-01-18T01:15:24.648Z,0
2017-01-18T01:16:47.551Z,0
2017-01-18T01:18:10.407Z,0
2017-01-18T01:19:33.390Z,0
2017-01-18T01:20:56.306Z,0
2017-01-18T01:22:18.782Z,0
2017-01-18T01:23:41.254Z,0
2017-01-18T01:25:03.720Z,0
2017-01-18T01:26:26.313Z,0
2017-01-18T01:27:48.783Z,0
2017-01-18T01:29:11.733Z,0
2017-01-18T01:30:34.674Z,0
2017-01-18T01:31:57.159Z,0
2017-01-18T01:33:20.066Z,0
2017-01-18T01:34:42.199Z,0
2017-01-18T01:36:04.661Z,0
2017-01-18T01:37:27.518Z,0
2017-01-18T01:38:50.409Z,0
2017-01-18T01:40:12.990Z,0
2017-01-18T01:41:35.455Z,0
2017-01-18T01:42:58.380Z,0
2017-01-18T01:44:21.237Z,0
2017-01-18T01:45:44.113Z,0
2017-01-18T01:47:06.631Z,0
2017-01-18T01:48:29.097Z,0
2017-01-18T01:49:51.941Z,0
2017-01-18T01:51:14.800Z,0
2017-01-18T01:52:37.736Z,0
2017-01-18T01:54:00.216Z,0
2017-01-18T01:55:23.062Z,0
2017-01-18T01:56:45.607Z,0
2017-01-18T01:58:08.067Z,0
2017-01-18T01:59:30.568Z,0
2017-01-18T02:00:52.650Z,0
2017-01-18T02:02:15.253Z,0
2017-01-18T02:03:38.106Z,0
2017-01-18T02:05:01.114Z,0
2017-01-18T02:06:23.970Z,0
2017-01-18T02:07:46.450Z,0
2017-01-18T02:09:08.951Z,0
2017-01-18T02:10:30.632Z,0
2017-01-18T02:11:53.640Z,0
2017-01-18T02:13:16.502Z,0
2017-01-18T02:14:39.481Z,0
2017-01-18T02:16:02.360Z,0
2017-01-18T02:17:25.442Z,0
2017-01-18T02:18:48.318Z,0
2017-01-18T02:20:11.222Z,0
2017-01-18T02:21:34.055Z,0
2017-01-18T02:22:56.928Z,0
2017-01-18T02:24:19.852Z,0
2017-01-18T02:25:42.326Z,0
2017-01-18T02:27:05.180Z,0
2017-01-18T02:28:27.658Z,0
2017-01-18T02:29:49.720Z,0
2017-01-18T02:31:12.619Z,0
2017-01-18T02:32:35.620Z,0
2017-01-18T02:33:58.515Z,0
2017-01-18T02:35:20.690Z,0
2017-01-18T02:36:43.133Z,0
2017-01-18T02:38:05.990Z,0
2017-01-18T02:39:28.221Z,0
2017-01-18T02:40:50.709Z,0
2017-01-18T02:42:13.590Z,0
2017-01-18T02:43:36.078Z,0
2017-01-18T02:44:59.172Z,0
2017-01-18T02:46:21.643Z,0
2017-01-18T02:47:44.513Z,0
2017-01-18T02:49:07.013Z,0
2017-01-18T02:50:29.062Z,0
2017-01-18T02:51:51.978Z,0
2017-01-18T02:53:14.157Z,0
2017-01-18T02:54:36.628Z,0
2017-01-18T02:55:59.108Z,0
2017-01-18T02:57:21.708Z,0
2017-01-18T02:58:44.769Z,0
2017-01-18T03:00:07.614Z,0
2017-01-18T03:01:30.108Z,0
2017-01-18T03:02:52.588Z,0
2017-01-18T03:04:15.089Z,0
2017-01-18T03:05:37.199Z,0
2017-01-18T03:07:00.074Z,0
2017-01-18T03:08:22.585Z,0
2017-01-18T03:09:45.460Z,0
2017-01-18T03:11:08.367Z,0
2017-01-18T03:12:31.408Z,0
2017-01-18T03:13:53.913Z,0
2017-01-18T03:15:16.389Z,0
2017-01-18T03:16:38.556Z,0
2017-01-18T03:18:01.129Z,0
2017-01-18T03:19:23.992Z,0
2017-01-18T03:20:46.989Z,0
2017-01-18T03:22:09.909Z,0
2017-01-18T03:23:32.812Z,0
2017-01-18T03:24:55.703Z,0
2017-01-18T03:26:17.765Z,0
2017-01-18T03:27:40.637Z,0
2017-01-18T03:29:03.091Z,0
2017-01-18T03:30:25.563Z,0
2017-01-18T03:31:48.064Z,0
2017-01-18T03:33:10.541Z,0
2017-01-18T03:34:33.004Z,0
2017-01-18T03:35:55.551Z,0
2017-01-18T03:37:18.428Z,0
2017-01-18T03:38:41.338Z,0
2017-01-18T03:40:04.192Z,0
2017-01-18T03:41:27.077Z,0
2017-01-18T03:42:49.631Z,0
2017-01-18T03:44:12.741Z,0
2017-01-18T03:45:35.586Z,0
2017-01-18T03:46:57.720Z,0
2017-01-18T03:48:20.589Z,0
2017-01-18T03:49:43.160Z,0
2017-01-18T03:51:05.213Z,0
2017-01-18T03:52:28.077Z,0
2017-01-18T03:53:50.150Z,0
2017-01-18T03:55:13.016Z,0
2017-01-18T03:56:35.593Z,0
2017-01-18T03:57:58.441Z,0
2017-01-18T03:59:21.318Z,0
2017-01-18T04:00:43.780Z,0
2017-01-18T04:02:06.274Z,0
2017-01-18T04:03:29.174Z,0
2017-01-18T04:04:51.659Z,0
2017-01-18T04:06:13.717Z,0
2017-01-18T04:07:36.209Z,0
2017-01-18T04:08:58.685Z,0
2017-01-18T04:10:21.788Z,0
2017-01-18T04:11:44.643Z,0
2017-01-18T04:13:06.304Z,0
2017-01-18T04:14:28.368Z,0
2017-01-18T04:15:51.308Z,0
2017-01-18T04:17:13.374Z,0
2017-01-18T04:18:36.214Z,0
2017-01-18T04:19:58.557Z,0
2017-01-18T04:21:21.064Z,0
2017-01-18T04:22:43.557Z,0
2017-01-18T04:24:06.518Z,0
2017-01-18T04:25:29.366Z,0
2017-01-18T04:26:52.282Z,0
2017-01-18T04:28:14.864Z,0
2017-01-18T04:29:37.512Z,0
2017-01-18T04:30:59.680Z,0
2017-01-18T04:32:22.144Z,0
2017-01-18T04:33:45.176Z,0
2017-01-18T04:35:07.713Z,0
2017-01-18T04:36:30.321Z,0
2017-01-18T04:37:53.183Z,0
2017-01-18T04:39:16.057Z,0
2017-01-18T04:40:38.900Z,0
2017-01-18T04:42:01.889Z,0
2017-01-18T04:43:24.775Z,0
2017-01-18T04:44:47.689Z,0
2017-01-18T04:46:10.567Z,0
2017-01-18T04:47:33.573Z,0
2017-01-18T04:48:56.425Z,0
2017-01-18T04:50:18.494Z,0
2017-01-18T04:51:40.655Z,0
2017-01-18T04:53:03.513Z,0
2017-01-18T04:54:25.995Z,0
2017-01-18T04:55:48.061Z,0
2017-01-18T04:57:10.226Z,0
2017-01-18T04:58:33.106Z,0
2017-01-18T04:59:56.105Z,0
2017-01-18T05:01:18.632Z,0
2017-01-18T05:02:41.616Z,0
2017-01-18T05:04:03.736Z,0
2017-01-18T05:05:25.832Z,0
2017-01-18T05:06:48.717Z,0
2017-01-18T05:08:11.335Z,0
2017-01-18T05:09:34.196Z,0
2017-01-18T05:10:56.671Z,0
2017-01-18T05:12:18.744Z,0
2017-01-18T05:13:41.619Z,0
2017-01-18T05:15:04.110Z,0
2017-01-18T05:16:26.624Z,0
2017-01-18T05:17:49.477Z,0
2017-01-18T05:19:11.550Z,0
2017-01-18T05:20:33.612Z,0
2017-01-18T05:21:55.282Z,0
2017-01-18T05:23:18.132Z,0
2017-01-18T05:24:40.609Z,0
2017-01-18T05:26:03.194Z,0
2017-01-18T05:27:26.054Z,0
2017-01-18T05:28:48.843Z,0
2017-01-18T05:30:11.504Z,0
2017-01-18T05:31:34.367Z,0
2017-01-18T05:32:56.814Z,0
2017-01-18T05:34:18.465Z,0
2017-01-18T05:35:40.922Z,0
2017-01-18T05:37:03.894Z,0
2017-01-18T05:38:26.767Z,0
2017-01-18T05:39:49.808Z,0
2017-01-18T05:41:12.293Z,0
2017-01-18T05:42:35.508Z,0
2017-01-18T05:43:57.589Z,0
2017-01-18T05:45:20.144Z,0
2017-01-18T05:46:42.245Z,0
2017-01-18T05:48:04.317Z,0
2017-01-18T05:49:27.230Z,0
2017-01-18T05:50:50.080Z,0
2017-01-18T05:52:12.995Z,0
2017-01-18T05:53:35.458Z,0
2017-01-18T05:54:58.335Z,0
2017-01-18T05:56:20.806Z,0
2017-01-18T05:57:43.673Z,0
2017-01-18T05:59:06.222Z,0
2017-01-18T06:00:29.257Z,0
2017-01-18T06:01:51.746Z,0
2017-01-18T06:03:14.607Z,0
2017-01-18T06:04:36.694Z,0
2017-01-18T06:05:59.169Z,0
2017-01-18T06:07:21.656Z,0
2017-01-18T06:08:44.546Z,0
2017-01-18T06:10:07.448Z,0
2017-01-18T06:11:30.323Z,8
2017-01-18T06:12:52.823Z,8
2017-01-18T06:14:15.445Z,0
2017-01-18T06:15:38.314Z,0
2017-01-18T06:17:00.757Z,0
2017-01-18T06:18:23.245Z,0
2017-01-18T06:19:45.688Z,0
2017-01-18T06:21:08.142Z,0
2017-01-18T06:22:30.632Z,0
2017-01-18T06:23:53.528Z,0
2017-01-18T06:25:16.402Z,0
2017-01-18T06:26:39.386Z,0
2017-01-18T06:28:02.274Z,0
2017-01-18T06:29:25.303Z,0
2017-01-18T06:30:47.025Z,0
2017-01-18T06:32:09.490Z,0
2017-01-18T06:33:31.978Z,0
2017-01-18T06:34:54.491Z,0
2017-01-18T06:36:17.081Z,0
2017-01-18T06:37:39.541Z,0
2017-01-18T06:39:02.132Z,0
2017-01-18T06:40:25.964Z,0
2017-01-18T06:41:48.013Z,0
2017-01-18T06:43:10.883Z,0
2017-01-18T06:44:33.491Z,0
2017-01-18T06:45:56.606Z,0
2017-01-18T06:47:19.253Z,0
2017-01-18T06:48:42.111Z,4
2017-01-18T06:50:05.075Z,0
2017-01-18T06:51:27.932Z,0
2017-01-18T06:52:50.797Z,4
2017-01-18T06:54:13.020Z,4
2017-01-18T06:55:35.076Z,4
2017-01-18T06:56:57.585Z,8
2017-01-18T06:58:20.035Z,8
2017-01-18T06:59:43.145Z,8
2017-01-18T07:01:06.086Z,12
2017-01-18T07:02:29.008Z,12
2017-01-18T07:03:51.901Z,16
2017-01-18T07:05:13.987Z,20
2017-01-18T07:06:36.860Z,32
2017-01-18T07:07:59.821Z,40
2017-01-18T07:09:22.274Z,48
2017-01-18T07:10:45.282Z,52
2017-01-18T07:12:07.892Z,60
2017-01-18T07:13:29.968Z,68
2017-01-18T07:14:52.207Z,76
2017-01-18T07:16:13.919Z,96
2017-01-18T07:17:36.411Z,112
2017-01-18T07:18:58.087Z,128
2017-01-18T07:20:21.047Z,140
2017-01-18T07:21:43.570Z,156
2017-01-18T07:23:06.084Z,176
2017-01-18T07:24:28.943Z,196
2017-01-18T07:25:51.814Z,216
2017-01-18T07:27:14.285Z,236
2017-01-18T07:28:36.761Z,256
2017-01-18T07:29:59.674Z,276
2017-01-18T07:31:21.783Z,296
2017-01-18T07:32:43.894Z,312
2017-01-18T07:34:06.484Z,328
2017-01-18T07:35:28.534Z,348
2017-01-18T07:36:51.492Z,364
2017-01-18T07:38:13.967Z,388
2017-01-18T07:39:36.550Z,416
2017-01-18T07:40:59.187Z,448
2017-01-18T07:42:21.647Z,488
2017-01-18T07:43:44.523Z,540
2017-01-18T07:45:07.043Z,592
2017-01-18T07:46:29.302Z,632
2017-01-18T07:47:51.781Z,676
2017-01-18T07:49:14.270Z,736
2017-01-18T07:50:37.123Z,784
2017-01-18T07:51:59.577Z,844
2017-01-18T07:53:21.657Z,912
2017-01-18T07:54:44.503Z,972
2017-01-18T07:56:07.067Z,1032
2017-01-18T07:57:30.027Z,1088
2017-01-18T07:58:52.547Z,1112
2017-01-18T08:00:15.014Z,1136
2017-01-18T08:01:37.595Z,1156
2017-01-18T08:02:59.667Z,1184
2017-01-18T08:04:22.750Z,1212
2017-01-18T08:05:45.611Z,1268
2017-01-18T08:07:08.528Z,1372
2017-01-18T08:08:31.050Z,1496
2017-01-18T08:09:54.003Z,1588
2017-01-18T08:11:16.090Z,1660
2017-01-18T08:12:39.025Z,1672
2017-01-18T08:14:01.425Z,1632
2017-01-18T08:15:24.524Z,1548
2017-01-18T08:16:46.566Z,1440
2017-01-18T08:18:09.032Z,1388
2017-01-18T08:19:32.039Z,1388
2017-01-18T08:20:55.055Z,1420
2017-01-18T08:22:17.520Z,1480
2017-01-18T08:23:40.446Z,1604
2017-01-18T08:25:03.339Z,1768
2017-01-18T08:26:26.248Z,1936
2017-01-18T08:27:49.038Z,2076
2017-01-18T08:29:11.925Z,2212
2017-01-18T08:30:34.367Z,2288
2017-01-18T08:31:56.978Z,2352
2017-01-18T08:33:19.889Z,2432
2017-01-18T08:34:42.801Z,2580
2017-01-18T08:36:05.391Z,2680
2017-01-18T08:37:28.247Z,2792
2017-01-18T08:38:50.696Z,2856
2017-01-18T08:40:13.672Z,2844
2017-01-18T08:41:36.132Z,2836
2017-01-18T08:42:59.207Z,2884
2017-01-18T08:44:21.280Z,2988
2017-01-18T08:45:44.198Z,3192
2017-01-18T08:47:06.270Z,3392
2017-01-18T08:48:29.354Z,3540
2017-01-18T08:49:52.322Z,3588
2017-01-18T08:51:14.799Z,3664
2017-01-18T08:52:38.396Z,3704
2017-01-18T08:54:01.381Z,3784
2017-01-18T08:55:24.289Z,3820
2017-01-18T08:56:46.350Z,3972
2017-01-18T08:58:09.377Z,4116
2017-01-18T08:59:31.827Z,4212
2017-01-18T09:00:54.861Z,4372
2017-01-18T09:02:17.736Z,4392
2017-01-18T09:03:40.626Z,4408
2017-01-18T09:05:03.115Z,4424
2017-01-18T09:06:25.999Z,4500
2017-01-18T09:07:48.805Z,4608
2017-01-18T09:09:11.739Z,4676
2017-01-18T09:10:34.595Z,4904
2017-01-18T09:11:57.097Z,5064
2017-01-18T09:13:19.957Z,5100
2017-01-18T09:14:42.947Z,5228
2017-01-18T09:16:05.424Z,5300
2017-01-18T09:17:28.093Z,5280
2017-01-18T09:18:51.075Z,5168
2017-01-18T09:20:13.574Z,5220
2017-01-18T09:21:36.072Z,5424
2017-01-18T09:22:58.925Z,5628
2017-01-18T09:24:21.814Z,5720
2017-01-18T09:25:44.767Z,5872
2017-01-18T09:27:07.872Z,5964
2017-01-18T09:28:30.735Z,5996
2017-01-18T09:29:53.664Z,5928
2017-01-18T09:31:15.733Z,6068
2017-01-18T09:32:38.717Z,6220
2017-01-18T09:34:00.808Z,6368
2017-01-18T09:35:22.880Z,6416
2017-01-18T09:36:45.821Z,6456
2017-01-18T09:38:07.967Z,6480
2017-01-18T09:39:30.868Z,6492
2017-01-18T09:40:53.353Z,6576
2017-01-18T09:42:16.027Z,6800
2017-01-18T09:43:38.965Z,6964
2017-01-18T09:45:01.828Z,6920
2017-01-18T09:46:24.426Z,6796
2017-01-18T09:47:47.289Z,6780
2017-01-18T09:49:09.760Z,6888
2017-01-18T09:50:32.255Z,7236
2017-01-18T09:51:54.390Z,7232
2017-01-18T09:53:16.847Z,7272
2017-01-18T09:54:39.804Z,7640
2017-01-18T09:56:02.681Z,7848
2017-01-18T09:57:25.141Z,7676
2017-01-18T09:58:48.103Z,7704
2017-01-18T10:00:11.036Z,8136
2017-01-18T10:01:33.638Z,8480
2017-01-18T10:02:55.735Z,8424
2017-01-18T10:04:18.217Z,8120
2017-01-18T10:05:40.733Z,7948
2017-01-18T10:07:03.267Z,7848
2017-01-18T10:08:26.167Z,7516
2017-01-18T10:09:49.145Z,7400
2017-01-18T10:11:12.033Z,7340
2017-01-18T10:12:34.909Z,7104
2017-01-18T10:13:57.779Z,6880
2017-01-18T10:15:20.635Z,6360
2017-01-18T10:16:43.132Z,6168
2017-01-18T10:18:05.997Z,6412
2017-01-18T10:19:29.012Z,6600
2017-01-18T10:20:51.540Z,6708
2017-01-18T10:22:13.627Z,6884
2017-01-18T10:23:36.096Z,6864
2017-01-18T10:24:58.752Z,6920
2017-01-18T10:26:21.637Z,7068
2017-01-18T10:27:44.078Z,7404
2017-01-18T10:29:06.955Z,7748
2017-01-18T10:30:29.857Z,7996
2017-01-18T10:31:52.426Z,8008
2017-01-18T10:33:15.287Z,8136
2017-01-18T10:34:37.409Z,8132
2017-01-18T10:36:00.281Z,7968
2017-01-18T10:37:22.359Z,7776
2017-01-18T10:38:44.850Z,7464
2017-01-18T10:40:07.467Z,7272
2017-01-18T10:41:29.947Z,7176
2017-01-18T10:42:52.851Z,7332
2017-01-18T10:44:15.329Z,7628
2017-01-18T10:45:37.788Z,7904
2017-01-18T10:47:00.694Z,8292
2017-01-18T10:48:23.649Z,8768
2017-01-18T10:49:46.544Z,9276
2017-01-18T10:51:09.282Z,9420
2017-01-18T10:52:31.801Z,9444
2017-01-18T10:53:54.726Z,9512
2017-01-18T10:55:17.720Z,9496
2017-01-18T10:56:40.212Z,9500
2017-01-18T10:58:03.106Z,9500
2017-01-18T10:59:25.989Z,9512
2017-01-18T11:00:48.859Z,9484
2017-01-18T11:02:11.509Z,9472
2017-01-18T11:03:33.978Z,9452
2017-01-18T11:04:56.457Z,9504
2017-01-18T11:06:19.011Z,9664
2017-01-18T11:07:41.888Z,9880
2017-01-18T11:09:04.356Z,10076
2017-01-18T11:10:26.416Z,10280
2017-01-18T11:11:49.027Z,10636
2017-01-18T11:13:11.108Z,10968
2017-01-18T11:14:34.145Z,11104
2017-01-18T11:15:56.364Z,11008
2017-01-18T11:17:18.858Z,10700
2017-01-18T11:18:41.352Z,10388
2017-01-18T11:20:04.248Z,10152
2017-01-18T11:21:26.569Z,9940
2017-01-18T11:22:48.682Z,9792
2017-01-18T11:24:11.548Z,9636
2017-01-18T11:25:34.455Z,9504
2017-01-18T11:26:57.405Z,9336
2017-01-18T11:28:19.912Z,8996
2017-01-18T11:29:42.018Z,8736
2017-01-18T11:31:04.871Z,8292
2017-01-18T11:32:27.745Z,7960
2017-01-18T11:33:50.211Z,7956
2017-01-18T11:35:13.096Z,7968
2017-01-18T11:36:35.990Z,7924
2017-01-18T11:37:58.874Z,7828
2017-01-18T11:39:21.495Z,7916
2017-01-18T11:40:43.953Z,7924
2017-01-18T11:42:06.598Z,8172
2017-01-18T11:43:29.059Z,8148
2017-01-18T11:44:51.684Z,8164
2017-01-18T11:46:14.318Z,8160
2017-01-18T11:47:37.233Z,8204
2017-01-18T11:48:59.768Z,8228
2017-01-18T11:50:22.238Z,8164
2017-01-18T11:51:44.729Z,8004
2017-01-18T11:53:07.610Z,7836
2017-01-18T11:54:30.148Z,7560
2017-01-18T11:55:52.733Z,7340
2017-01-18T11:57:15.291Z,7348
2017-01-18T11:58:37.857Z,7428
2017-01-18T11:59:59.990Z,7384
2017-01-18T12:01:22.487Z,7224
2017-01-18T12:02:45.105Z,7216
2017-01-18T12:04:08.116Z,7340
2017-01-18T12:05:30.996Z,7492
2017-01-18T12:06:53.509Z,7492
2017-01-18T12:08:16.390Z,7404
2017-01-18T12:09:38.592Z,7340
2017-01-18T12:11:01.459Z,7492
2017-01-18T12:12:24.331Z,7668
2017-01-18T12:13:46.792Z,7856
2017-01-18T12:15:09.697Z,7952
2017-01-18T12:16:32.298Z,7896
2017-01-18T12:17:54.796Z,7760
2017-01-18T12:19:17.259Z,7556
2017-01-18T12:20:40.150Z,7376
2017-01-18T12:22:03.177Z,7248
2017-01-18T12:23:25.674Z,7148
2017-01-18T12:24:48.136Z,7280
2017-01-18T12:26:11.059Z,7496
2017-01-18T12:27:33.537Z,7560
2017-01-18T12:28:56.444Z,7660
2017-01-18T12:30:19.304Z,7656
2017-01-18T12:31:41.792Z,7532
2017-01-18T12:33:03.886Z,7312
2017-01-18T12:34:26.888Z,7288
2017-01-18T12:35:49.486Z,7336
2017-01-18T12:37:12.360Z,7328
2017-01-18T12:38:35.295Z,7172
2017-01-18T12:39:57.793Z,7148
2017-01-18T12:41:20.686Z,7080
2017-01-18T12:42:43.564Z,7000
2017-01-18T12:44:06.473Z,6976
2017-01-18T12:45:29.366Z,6952
2017-01-18T12:46:52.252Z,6928
2017-01-18T12:48:14.337Z,6900
2017-01-18T12:49:37.449Z,6772
2017-01-18T12:50:59.528Z,6704
2017-01-18T12:52:22.411Z,6576
2017-01-18T12:53:44.934Z,6576
2017-01-18T12:55:07.808Z,6440
2017-01-18T12:56:29.884Z,6280
2017-01-18T12:57:52.527Z,6244
2017-01-18T12:59:15.007Z,6348
2017-01-18T13:00:37.117Z,6276
2017-01-18T13:02:00.019Z,6028
2017-01-18T13:03:22.885Z,6004
2017-01-18T13:04:44.670Z,5812
2017-01-18T13:06:07.568Z,5584
2017-01-18T13:07:30.103Z,5680
2017-01-18T13:08:52.162Z,5784
2017-01-18T13:10:14.248Z,5880
2017-01-18T13:11:36.749Z,5836
2017-01-18T13:12:58.942Z,5640
2017-01-18T13:14:21.489Z,5492
2017-01-18T13:15:44.029Z,5352
2017-01-18T13:17:06.916Z,5396
2017-01-18T13:18:29.521Z,5612
2017-01-18T13:19:52.050Z,5936
2017-01-18T13:21:14.231Z,5848
2017-01-18T13:22:36.351Z,5868
2017-01-18T13:23:59.303Z,5908
2017-01-18T13:25:22.287Z,5764
2017-01-18T13:26:44.355Z,5632
2017-01-18T13:28:07.217Z,5568
2017-01-18T13:29:29.735Z,5796
2017-01-18T13:30:51.952Z,5576
2017-01-18T13:32:14.436Z,5328
2017-01-18T13:33:37.479Z,5432
2017-01-18T13:34:59.586Z,5484
2017-01-18T13:36:22.475Z,5444
2017-01-18T13:37:44.199Z,5484
2017-01-18T13:39:07.089Z,5440
2017-01-18T13:40:29.974Z,5184
2017-01-18T13:41:52.079Z,5180
2017-01-18T13:43:14.213Z,5092
2017-01-18T13:44:37.067Z,5008
2017-01-18T13:46:00.039Z,5008
2017-01-18T13:47:22.180Z,4904
2017-01-18T13:48:45.074Z,4852
2017-01-18T13:50:08.068Z,4796
2017-01-18T13:51:31.048Z,4724
2017-01-18T13:52:53.947Z,4700
2017-01-18T13:54:16.812Z,4628
2017-01-18T13:55:39.792Z,4516
2017-01-18T13:57:02.309Z,4440
2017-01-18T13:58:24.440Z,4316
2017-01-18T13:59:46.927Z,4180
2017-01-18T14:01:09.457Z,4172
2017-01-18T14:02:32.371Z,4208
2017-01-18T14:03:54.848Z,4296
2017-01-18T14:05:17.785Z,4272
2017-01-18T14:06:40.636Z,4140
2017-01-18T14:08:03.575Z,4120
2017-01-18T14:09:24.866Z,3984
2017-01-18T14:10:47.736Z,3932
2017-01-18T14:12:10.619Z,3856
2017-01-18T14:13:33.484Z,3764
2017-01-18T14:14:56.409Z,3588
2017-01-18T14:16:18.880Z,3628
2017-01-18T14:17:41.903Z,3580
2017-01-18T14:19:04.010Z,3444
2017-01-18T14:20:26.088Z,3404
2017-01-18T14:21:48.954Z,3264
2017-01-18T14:23:11.441Z,3148
2017-01-18T14:24:34.385Z,3048
2017-01-18T14:25:57.298Z,2920
2017-01-18T14:27:20.211Z,2788
2017-01-18T14:28:42.697Z,2744
2017-01-18T14:30:05.367Z,2780
2017-01-18T14:31:28.316Z,2820
2017-01-18T14:32:51.237Z,2840
2017-01-18T14:34:13.326Z,2800
2017-01-18T14:35:35.653Z,2748
2017-01-18T14:36:58.148Z,2688
2017-01-18T14:38:21.125Z,2652
2017-01-18T14:39:43.811Z,2576
2017-01-18T14:41:05.900Z,2480
2017-01-18T14:42:28.943Z,2396
2017-01-18T14:43:51.492Z,2328
2017-01-18T14:45:14.382Z,2256
2017-01-18T14:46:37.015Z,2188
2017-01-18T14:47:59.208Z,2124
2017-01-18T14:49:21.424Z,2036
2017-01-18T14:50:44.345Z,2052
2017-01-18T14:52:06.046Z,2052
2017-01-18T14:53:28.952Z,1964
2017-01-18T14:54:51.879Z,1892
2017-01-18T14:56:14.759Z,1804
2017-01-18T14:57:36.964Z,1752
2017-01-18T14:58:59.076Z,1652
2017-01-18T15:00:21.613Z,1600
2017-01-18T15:01:43.678Z,1572
2017-01-18T15:03:06.202Z,1532
2017-01-18T15:04:28.728Z,1476
2017-01-18T15:05:50.822Z,1384
2017-01-18T15:07:13.740Z,1304
2017-01-18T15:08:36.334Z,1248
2017-01-18T15:09:59.326Z,1240
2017-01-18T15:11:21.829Z,1224
2017-01-18T15:12:44.308Z,1128
2017-01-18T15:14:06.861Z,1084
2017-01-18T15:15:29.769Z,1044
2017-01-18T15:16:51.964Z,968
2017-01-18T15:18:14.192Z,920
2017-01-18T15:19:37.273Z,876
2017-01-18T15:20:59.744Z,812
2017-01-18T15:22:21.874Z,768
2017-01-18T15:23:44.390Z,712
2017-01-18T15:25:07.292Z,652
2017-01-18T15:26:28.600Z,608
2017-01-18T15:27:51.090Z,572
2017-01-18T15:29:14.077Z,552
2017-01-18T15:30:37.134Z,524
2017-01-18T15:32:00.057Z,492
2017-01-18T15:33:23.091Z,460
2017-01-18T15:34:45.190Z,428
2017-01-18T15:36:08.091Z,400
2017-01-18T15:37:31.127Z,376
2017-01-18T15:38:53.220Z,348
2017-01-18T15:40:15.720Z,320
2017-01-18T15:41:38.279Z,296
2017-01-18T15:43:00.797Z,268
2017-01-18T15:44:23.760Z,240
2017-01-18T15:45:46.677Z,216
2017-01-18T15:47:08.816Z,200
2017-01-18T15:48:32.170Z,176
2017-01-18T15:49:54.917Z,152
2017-01-18T15:51:17.011Z,132
2017-01-18T15:52:40.035Z,120
2017-01-18T15:54:02.141Z,104
2017-01-18T15:55:25.384Z,92
2017-01-18T15:56:47.905Z,80
2017-01-18T15:58:10.891Z,68
2017-01-18T15:59:33.555Z,60
2017-01-18T16:00:56.076Z,52
2017-01-18T16:02:19.101Z,44
2017-01-18T16:03:41.292Z,40
2017-01-18T16:05:03.799Z,32
2017-01-18T16:06:26.859Z,28
2017-01-18T16:07:48.536Z,24
2017-01-18T16:09:11.517Z,20
2017-01-18T16:10:33.605Z,20
2017-01-18T16:11:56.175Z,16
2017-01-18T16:13:18.676Z,16
2017-01-18T16:14:41.194Z,12
2017-01-18T16:16:03.455Z,16
2017-01-18T16:17:25.550Z,12
2017-01-18T16:18:47.637Z,12
2017-01-18T16:20:10.543Z,12
2017-01-18T16:21:33.120Z,12
2017-01-18T16:22:55.300Z,12
2017-01-18T16:24:17.805Z,8
2017-01-18T16:25:40.341Z,8
2017-01-18T16:27:02.916Z,8
2017-01-18T16:28:25.052Z,8
2017-01-18T16:29:47.722Z,12
2017-01-18T16:31:10.653Z,12
2017-01-18T16:32:33.591Z,12
2017-01-18T16:33:56.192Z,12
2017-01-18T16:35:18.298Z,8
2017-01-18T16:36:40.454Z,12
2017-01-18T16:38:02.959Z,8
2017-01-18T16:39:25.194Z,8
2017-01-18T16:40:47.708Z,8
2017-01-18T16:42:10.260Z,8
2017-01-18T16:43:32.780Z,8
2017-01-18T16:44:55.496Z,8
2017-01-18T16:46:17.991Z,8
2017-01-18T16:47:40.909Z,8
2017-01-18T16:49:04.566Z,8
2017-01-18T16:50:26.691Z,8
2017-01-18T16:51:49.170Z,8
2017-01-18T16:53:11.658Z,8
2017-01-18T16:54:34.162Z,8
2017-01-18T16:55:57.133Z,8
2017-01-18T16:57:20.031Z,8
2017-01-18T16:58:42.553Z,8
2017-01-18T17:00:05.428Z,8
2017-01-18T17:01:59.813Z,8
2017-01-18T17:03:22.407Z,8
2017-01-18T17:04:45.287Z,8
2017-01-18T17:06:07.046Z,8
2017-01-18T17:07:29.981Z,8
2017-01-18T17:08:52.485Z,8
2017-01-18T17:10:14.954Z,8
2017-01-18T17:11:37.600Z,8
2017-01-18T17:13:00.492Z,8
2017-01-18T17:14:23.004Z,8
2017-01-18T17:15:45.485Z,8
2017-01-18T17:17:07.992Z,8
2017-01-18T17:18:30.485Z,8
2017-01-18T17:19:53.355Z,8
2017-01-18T17:21:16.014Z,8
2017-01-18T17:22:38.953Z,8
2017-01-18T17:24:33.478Z,8
2017-01-18T17:25:56.244Z,8
2017-01-18T17:27:18.907Z,8
2017-01-18T17:28:41.827Z,8
2017-01-18T17:30:04.056Z,8
2017-01-18T17:31:26.544Z,8
2017-01-18T17:32:49.435Z,8
2017-01-18T17:34:11.552Z,8
2017-01-18T17:35:34.502Z,8
2017-01-18T17:36:57.012Z,8
2017-01-18T17:38:19.552Z,8
2017-01-18T17:39:42.562Z,8
2017-01-18T17:41:05.625Z,8
2017-01-18T17:42:28.016Z,8
2017-01-18T17:43:50.095Z,8
2017-01-18T17:45:12.575Z,8
2017-01-18T17:46:35.102Z,8
2017-01-18T17:47:57.198Z,8
2017-01-18T17:49:20.157Z,8
2017-01-18T17:50:43.114Z,8
2017-01-18T17:52:05.766Z,8
2017-01-18T17:53:27.450Z,8
2017-01-18T17:54:49.553Z,8
2017-01-18T17:56:12.460Z,0
2017-01-18T17:57:34.565Z,0
2017-01-18T17:58:57.460Z,0
2017-01-18T18:00:19.948Z,0
2017-01-18T18:01:41.660Z,0
2017-01-18T18:03:04.249Z,0
2017-01-18T18:04:26.348Z,0
2017-01-18T18:05:49.457Z,0
2017-01-18T18:07:12.140Z,0
2017-01-18T18:08:35.035Z,0
2017-01-18T18:09:57.572Z,0
2017-01-18T18:11:20.452Z,0
2017-01-18T18:12:42.525Z,0
2017-01-18T18:14:05.027Z,0
2017-01-18T18:15:27.950Z,0
2017-01-18T18:16:50.463Z,0
2017-01-18T18:18:13.354Z,0
2017-01-18T18:19:36.304Z,0
2017-01-18T18:20:58.938Z,0
2017-01-18T18:22:21.141Z,0
2017-01-18T18:23:44.068Z,0
2017-01-18T18:25:06.597Z,0
2017-01-18T18:26:28.664Z,0
2017-01-18T18:27:51.318Z,0
2017-01-18T18:29:13.429Z,0
2017-01-18T18:30:36.418Z,0
2017-01-18T18:31:59.329Z,0
2017-01-18T18:33:21.434Z,0
2017-01-18T18:34:43.925Z,0
2017-01-18T18:36:05.589Z,0
2017-01-18T18:37:28.484Z,0
2017-01-18T18:38:50.970Z,0
2017-01-18T18:40:13.944Z,0
2017-01-18T18:41:36.030Z,0
2017-01-18T18:42:58.969Z,0
2017-01-18T18:44:21.676Z,0
2017-01-18T18:45:44.579Z,0
2017-01-18T18:47:07.119Z,0
2017-01-18T18:48:30.010Z,0
2017-01-18T18:49:52.980Z,0
2017-01-18T18:51:14.704Z,0
2017-01-18T18:52:37.600Z,0
2017-01-18T18:54:00.516Z,0
2017-01-18T18:55:23.036Z,0
2017-01-18T18:56:45.699Z,0
2017-01-18T18:58:07.796Z,0
2017-01-18T18:59:30.684Z,0
2017-01-18T19:00:52.940Z,0
2017-01-18T19:02:15.064Z,0
2017-01-18T19:03:37.802Z,0
2017-01-18T19:05:00.726Z,0
2017-01-18T19:06:23.799Z,0
2017-01-18T19:07:45.946Z,0
2017-01-18T19:09:08.084Z,0
2017-01-18T19:10:30.986Z,0
2017-01-18T19:11:53.922Z,0
2017-01-18T19:13:16.870Z,0
2017-01-18T19:14:39.385Z,0
2017-01-18T19:16:02.324Z,0
2017-01-18T19:17:25.227Z,0
2017-01-18T19:18:48.265Z,0
2017-01-18T19:20:10.874Z,0
2017-01-18T19:21:34.007Z,0
2017-01-18T19:22:56.909Z,0
2017-01-18T19:24:18.640Z,0
2017-01-18T19:25:41.214Z,0